Abbotsford International Airport

CYXX · 不列颠哥伦比亚, 加拿大

罗盘
风向 的 风向 050° 阿伯茨福德国际机场 1/19
风: 10 kt, 3 beaufort

9 kt

4 kt
改变
0 5.000 10.000 15.000 20.000
FEW 14.000 ft
FEW 20.000 ft
METAR CYXX 011000Z 05010KT 15SM FEW140 FEW200 M02/M08 A2960 RMK AS1CS1 SLP027

METAR 阿伯茨福德国际机场 - CYXX/YXX

阿伯茨福德国际机场是,加拿大中的大型机场。 该机场有3条跑道: 1/19, 1L/19R 和 7/25. 该领域的国际民航组织标志是CYXX 它的国际航空运输协会代码是YXX.

这份报告是针对2022年12月1日 02:00, 当地时间在阿伯茨福德国际机场进行的。

机场观察

风向为050°,速度为10 kt。

可见度为15 mi。

有几云在14.000 ft的高度 和 几云在20.000 ft的高度。 没有观察到天花板。

温度为-2 °C,阵风为-10 °C。 露点为-8 °C,相对湿度为64%。 海平面上的气压为29,60 inHg (QNH)。

白天

今天,太阳从07:42升起,在16:14降落。 这适用于阿伯茨福德国际机场,世界夏令时可能有所不同。 当地时间与世界标准时间之间的时差为-8 小时。 当前,没有夏令时有效。

公司介绍

在这个机场,你可以找到飞行学校。 本场上唯一已知的公司是Coastal Pacific Aviation。

体会

到Vliegles.nl去找飞行课程,跳伞和其他飞行体验。 浏览页面,了解阿伯茨福德国际机场附近所有可用的活动。 你也可以使用搜索功能来寻找你所在地附近的特定飞行课程、跳伞或其他飞行体验。

跑道

Id 标题 侧风 逆风 侧风 %
1/19 025°-205° 4 kt 9 kt 42 %
1L/19R 027°-207° 4 kt 9 kt 39 %
7/25 086°-266° 6 kt 8 kt 59 %

逆风成分最大的方向会被突出显示,并用于横风计算。 这并不一定意味着这个方向在使用。

乌云

14.000 ft FEW 几云
20.000 ft FEW 几云

温度 & 天气

温度 -2 °C
露点 -8 °C
相对湿度 64%
风寒 -10 °C
Kp-index 3 (0-9)

评论

SLP027海平面压力为29,61 inHg (29,61 inHg)
AS1CS1

白天

日出
07:42 (5:15)
中午
11:58
日落
16:14

小工具

你想在你的网站上有一个关于阿伯茨福德国际机场的当前航空天气(METAR)的小部件吗?

显示HTML代码

我们和第三方通过cookies跟踪您在我们网站上的互联网行为。如果你继续,我们认为你同意我们的饼干政策